createdAt,value
2023-02-17T00:01:28.172Z,41.53
2023-02-17T00:03:55.193Z,40.38
2023-02-17T00:06:26.196Z,44.25
2023-02-17T00:08:52.769Z,44.75
2023-02-17T00:11:20.014Z,40.63
2023-02-17T00:13:49.103Z,42.80
2023-02-17T00:16:19.770Z,41.85
2023-02-17T00:18:47.279Z,42.97
2023-02-17T00:21:17.280Z,42.33
2023-02-17T00:23:45.236Z,41.50
2023-02-17T00:26:13.968Z,43.60
2023-02-17T00:28:40.605Z,44.15
2023-02-17T00:31:13.732Z,46.20
2023-02-17T00:33:40.522Z,40.47
2023-02-17T00:36:10.674Z,41.95
2023-02-17T00:38:37.268Z,44.08
2023-02-17T00:41:04.337Z,40.88
2023-02-17T00:43:30.973Z,44.65
2023-02-17T00:45:57.515Z,41.60
2023-02-17T00:48:26.518Z,42.95
2023-02-17T00:50:55.215Z,51.47
2023-02-17T00:53:21.718Z,43.67
2023-02-17T00:55:48.505Z,45.90
2023-02-17T00:58:15.100Z,45.40
2023-02-17T01:00:41.979Z,43.03
2023-02-17T01:03:10.848Z,44.15
2023-02-17T01:05:46.193Z,42.45
2023-02-17T01:08:13.081Z,44.92
2023-02-17T01:10:41.211Z,41.38
2023-02-17T01:13:08.202Z,41.10
2023-02-17T01:15:43.427Z,41.63
2023-02-17T01:18:09.897Z,44.35
2023-02-17T01:20:38.531Z,43.83
2023-02-17T01:23:06.655Z,40.60
2023-02-17T01:25:39.622Z,44.70
2023-02-17T01:28:07.876Z,43.50
2023-02-17T01:30:35.149Z,43.78
2023-02-17T01:33:01.684Z,44.63
2023-02-17T01:35:28.215Z,40.42
2023-02-17T01:37:54.659Z,40.03
2023-02-17T01:40:21.163Z,40.65
2023-02-17T01:42:47.639Z,39.22
2023-02-17T01:45:17.230Z,41.08
2023-02-17T01:47:54.169Z,41.05
2023-02-17T01:50:24.694Z,43.38
2023-02-17T01:52:54.760Z,43.47
2023-02-17T01:55:23.497Z,41.38
2023-02-17T01:57:53.890Z,39.72
2023-02-17T02:00:23.259Z,38.33
2023-02-17T02:02:50.771Z,39.25
2023-02-17T02:05:19.747Z,41.80
2023-02-17T02:07:48.903Z,40.70
2023-02-17T02:10:17.180Z,38.33
2023-02-17T02:12:44.432Z,39.85
2023-02-17T02:15:17.218Z,35.72
2023-02-17T02:18:08.485Z,39.33
2023-02-17T02:20:59.232Z,39.55
2023-02-17T02:23:31.601Z,38.03
2023-02-17T02:26:22.800Z,38.00
2023-02-17T02:29:11.023Z,35.65
2023-02-17T02:31:50.139Z,35.13
2023-02-17T02:34:35.547Z,39.45
2023-02-17T02:37:20.830Z,38.20
2023-02-17T02:39:53.957Z,38.72
2023-02-17T02:42:24.172Z,39.42
2023-02-17T02:44:51.366Z,41.28
2023-02-17T02:47:39.368Z,41.22
2023-02-17T02:50:06.840Z,35.58
2023-02-17T02:53:07.539Z,37.53
2023-02-17T02:55:54.142Z,37.90
2023-02-17T02:58:45.470Z,36.75
2023-02-17T03:01:18.553Z,35.35
2023-02-17T03:04:26.582Z,35.03
2023-02-17T03:07:00.112Z,36.22
2023-02-17T03:09:27.687Z,37.80
2023-02-17T03:12:00.257Z,38.45
2023-02-17T03:14:28.561Z,34.60
2023-02-17T03:16:57.861Z,34.47
2023-02-17T03:19:25.631Z,35.58
2023-02-17T03:21:58.257Z,39.47
2023-02-17T03:24:30.101Z,36.25
2023-02-17T03:26:56.582Z,38.75
2023-02-17T03:29:23.148Z,36.75
2023-02-17T03:31:49.645Z,47.60
2023-02-17T03:34:18.563Z,36.63
2023-02-17T03:36:45.083Z,35.22
2023-02-17T03:39:11.586Z,39.70
2023-02-17T03:41:38.089Z,36.83
2023-02-17T03:44:05.112Z,37.53
2023-02-17T03:46:31.588Z,35.92
2023-02-17T03:48:58.129Z,35.35
2023-02-17T03:51:25.675Z,35.22
2023-02-17T03:53:55.038Z,33.70
2023-02-17T03:56:21.542Z,35.80
2023-02-17T03:58:48.057Z,35.47
2023-02-17T04:01:14.726Z,34.08
2023-02-17T04:03:42.039Z,32.13
2023-02-17T04:06:10.442Z,32.95
2023-02-17T04:08:37.347Z,34.35
2023-02-17T04:11:05.402Z,35.22
2023-02-17T04:13:32.809Z,32.50
2023-02-17T04:16:01.453Z,33.92
2023-02-17T04:18:28.220Z,32.70
2023-02-17T04:20:54.790Z,30.52
2023-02-17T04:23:21.768Z,34.22
2023-02-17T04:25:48.858Z,34.13
2023-02-17T04:28:15.845Z,37.45
2023-02-17T04:30:46.767Z,37.58
2023-02-17T04:33:13.420Z,35.63
2023-02-17T04:35:40.205Z,34.17
2023-02-17T04:38:10.553Z,35.53
2023-02-17T04:40:39.951Z,34.90
2023-02-17T04:43:06.504Z,35.15
2023-02-17T04:45:37.047Z,33.88
2023-02-17T04:48:04.113Z,33.67
2023-02-17T04:50:30.714Z,33.10
2023-02-17T04:52:57.224Z,37.83
2023-02-17T04:55:23.684Z,33.45
2023-02-17T04:57:50.194Z,34.78
2023-02-17T05:00:16.877Z,30.88
2023-02-17T05:02:43.346Z,31.33
2023-02-17T05:05:10.120Z,35.92
2023-02-17T05:07:36.602Z,32.65
2023-02-17T05:10:03.368Z,38.92
2023-02-17T05:12:29.900Z,40.30
2023-02-17T05:14:56.354Z,37.03
2023-02-17T05:17:22.790Z,38.08
2023-02-17T05:19:49.206Z,36.25
2023-02-17T05:22:15.726Z,38.00
2023-02-17T05:24:42.195Z,36.00
2023-02-17T05:27:11.049Z,39.25
2023-02-17T05:29:37.522Z,38.85
2023-02-17T05:32:04.000Z,36.67
2023-02-17T05:34:30.656Z,36.83
2023-02-17T05:36:57.161Z,38.20
2023-02-17T05:39:23.631Z,39.80
2023-02-17T05:41:52.360Z,40.35
2023-02-17T05:44:21.718Z,40.42
2023-02-17T05:46:48.251Z,37.65
2023-02-17T05:49:14.802Z,39.30
2023-02-17T05:51:41.303Z,36.22
2023-02-17T05:54:07.792Z,36.45
2023-02-17T05:56:34.345Z,34.25
2023-02-17T05:59:01.085Z,34.08
2023-02-17T06:01:27.909Z,40.63
2023-02-17T06:03:54.423Z,36.17
2023-02-17T06:06:20.915Z,34.55
2023-02-17T06:08:47.397Z,32.38
2023-02-17T06:11:13.949Z,34.42
2023-02-17T06:13:40.434Z,32.20
2023-02-17T06:16:07.426Z,43.17
2023-02-17T06:18:34.436Z,38.10
2023-02-17T06:21:00.974Z,37.20
2023-02-17T06:23:30.080Z,34.88
2023-02-17T06:25:56.610Z,31.80
2023-02-17T06:28:23.097Z,31.92
2023-02-17T06:30:49.581Z,36.28
2023-02-17T06:33:16.145Z,34.17
2023-02-17T06:35:44.459Z,31.77
2023-02-17T06:38:10.968Z,36.60
2023-02-17T06:40:37.460Z,31.60
2023-02-17T06:43:03.983Z,32.20
2023-02-17T06:45:30.561Z,32.72
2023-02-17T06:47:57.057Z,31.85
2023-02-17T06:50:23.547Z,31.70
2023-02-17T06:52:50.026Z,32.15
2023-02-17T06:55:16.503Z,32.75
2023-02-17T06:57:43.040Z,28.27
2023-02-17T07:00:10.241Z,31.80
2023-02-17T07:02:38.519Z,33.08
2023-02-17T07:05:06.829Z,31.63
2023-02-17T07:07:33.461Z,33.85
2023-02-17T07:10:00.123Z,31.10
2023-02-17T07:12:28.375Z,29.30
2023-02-17T07:14:54.880Z,32.95
2023-02-17T07:17:23.716Z,26.90
2023-02-17T07:19:50.205Z,26.55
2023-02-17T07:22:16.785Z,26.65
2023-02-17T07:24:43.279Z,20.80
2023-02-17T07:27:10.829Z,11.57
2023-02-17T07:29:37.532Z,7.18
2023-02-17T07:32:04.296Z,6.90
2023-02-17T07:34:33.105Z,9.15
2023-02-17T07:36:59.614Z,6.15
2023-02-17T07:39:26.195Z,9.82
2023-02-17T07:41:52.647Z,6.97
2023-02-17T07:44:21.385Z,8.10
2023-02-17T07:46:47.969Z,6.93
2023-02-17T07:49:14.817Z,8.80
2023-02-17T07:51:41.335Z,5.13
2023-02-17T07:54:10.043Z,6.32
2023-02-17T07:56:36.633Z,6.57
2023-02-17T07:59:03.089Z,6.95
2023-02-17T08:01:29.847Z,5.90
2023-02-17T08:03:56.418Z,10.52
2023-02-17T08:06:25.477Z,7.28
2023-02-17T08:09:11.895Z,8.50
2023-02-17T08:11:58.062Z,7.47
2023-02-17T08:14:27.061Z,9.02
2023-02-17T08:16:53.894Z,6.03
2023-02-17T08:19:20.963Z,7.28
2023-02-17T08:21:47.809Z,5.53
2023-02-17T08:24:16.347Z,8.15
2023-02-17T08:26:42.953Z,5.47
2023-02-17T08:29:09.452Z,7.75
2023-02-17T08:31:36.899Z,9.07
2023-02-17T08:34:08.353Z,8.77
2023-02-17T08:36:37.438Z,7.25
2023-02-17T08:39:10.883Z,6.88
2023-02-17T08:41:39.305Z,6.90
2023-02-17T08:44:12.289Z,7.65
2023-02-17T08:46:39.477Z,8.37
2023-02-17T08:49:07.133Z,8.60
2023-02-17T08:51:36.515Z,7.28
2023-02-17T08:54:06.341Z,7.63
2023-02-17T08:56:33.910Z,8.18
2023-02-17T08:59:02.765Z,8.73
2023-02-17T09:01:29.853Z,11.02
2023-02-17T09:03:58.000Z,9.35
2023-02-17T09:06:24.907Z,8.88
2023-02-17T09:08:51.467Z,8.73
2023-02-17T09:11:19.775Z,7.60
2023-02-17T09:13:46.608Z,9.73
2023-02-17T09:16:13.066Z,10.60
2023-02-17T09:18:39.678Z,7.50
2023-02-17T09:21:08.638Z,9.43
2023-02-17T09:23:35.314Z,11.35
2023-02-17T09:26:06.779Z,9.15
2023-02-17T09:28:34.519Z,11.23
2023-02-17T09:31:17.552Z,7.65
2023-02-17T09:33:44.776Z,15.43
2023-02-17T09:36:15.434Z,9.73
2023-02-17T09:38:42.850Z,7.63
2023-02-17T09:41:38.662Z,6.78
2023-02-17T09:44:10.175Z,17.80
2023-02-17T09:46:59.480Z,7.70
2023-02-17T09:49:42.344Z,10.55
2023-02-17T09:52:12.335Z,11.02
2023-02-17T09:54:53.813Z,9.90
2023-02-17T09:57:23.595Z,10.50
2023-02-17T09:59:55.750Z,9.43
2023-02-17T10:02:34.189Z,6.63
2023-02-17T10:05:06.080Z,16.42
2023-02-17T10:07:41.877Z,8.80
2023-02-17T10:10:22.699Z,10.20
2023-02-17T10:12:55.622Z,7.03
2023-02-17T10:15:29.267Z,8.77
2023-02-17T10:18:13.882Z,10.10
2023-02-17T10:20:45.212Z,8.05
2023-02-17T10:23:32.449Z,9.90
2023-02-17T10:26:20.393Z,6.80
2023-02-17T10:29:00.621Z,11.57
2023-02-17T10:31:46.770Z,10.48
2023-02-17T10:34:13.440Z,8.10
2023-02-17T10:36:52.231Z,9.32
2023-02-17T10:39:28.129Z,8.15
2023-02-17T10:41:56.186Z,5.78
2023-02-17T10:44:25.784Z,11.55
2023-02-17T10:46:54.204Z,10.45
2023-02-17T10:49:31.488Z,10.50
2023-02-17T10:52:37.930Z,11.27
2023-02-17T10:55:23.295Z,8.70
2023-02-17T10:57:57.529Z,8.65
2023-02-17T11:00:24.827Z,10.00
2023-02-17T11:02:52.346Z,8.07
2023-02-17T11:05:29.832Z,6.30
2023-02-17T11:08:02.798Z,7.90
2023-02-17T11:10:35.682Z,10.77
2023-02-17T11:13:04.496Z,6.40
2023-02-17T11:15:45.330Z,11.45
2023-02-17T11:18:21.721Z,8.13
2023-02-17T11:20:48.720Z,9.18
2023-02-17T11:23:15.327Z,5.55
2023-02-17T11:25:54.838Z,8.63
2023-02-17T11:28:26.078Z,9.60
2023-02-17T11:30:59.395Z,8.40
2023-02-17T11:33:35.507Z,8.25
2023-02-17T11:36:03.544Z,8.85
2023-02-17T11:38:40.632Z,7.28
2023-02-17T11:41:08.467Z,9.43
2023-02-17T11:43:36.392Z,7.40
2023-02-17T11:46:23.124Z,7.78
2023-02-17T11:49:14.732Z,8.98
2023-02-17T11:51:59.785Z,10.10
2023-02-17T11:54:40.469Z,7.88
2023-02-17T11:57:25.235Z,4.25
2023-02-17T12:00:16.212Z,7.22
2023-02-17T12:02:49.052Z,7.15
2023-02-17T12:05:21.699Z,12.65
2023-02-17T12:08:22.190Z,6.55
2023-02-17T12:11:00.935Z,10.70
2023-02-17T12:13:36.435Z,5.43
2023-02-17T12:16:24.201Z,8.32
2023-02-17T12:19:11.253Z,9.48
2023-02-17T12:21:50.053Z,8.25
2023-02-17T12:24:45.543Z,9.50
2023-02-17T12:27:34.438Z,7.30
2023-02-17T12:30:14.817Z,22.80
2023-02-17T12:32:55.737Z,12.35
2023-02-17T12:35:27.155Z,8.13
2023-02-17T12:37:56.709Z,6.32
2023-02-17T12:40:35.568Z,8.90
2023-02-17T12:43:27.292Z,8.55
2023-02-17T12:45:58.307Z,7.85
2023-02-17T12:48:45.113Z,8.02
2023-02-17T12:51:28.766Z,28.38
2023-02-17T12:54:18.913Z,12.10
2023-02-17T12:56:57.493Z,13.55
2023-02-17T12:59:33.612Z,5.60
2023-02-17T13:02:04.034Z,6.22
2023-02-17T13:04:33.084Z,6.10
2023-02-17T13:07:31.358Z,4.68
2023-02-17T13:09:58.344Z,5.50
2023-02-17T13:12:25.123Z,7.97
2023-02-17T13:14:54.915Z,4.90
2023-02-17T13:17:39.644Z,5.30
2023-02-17T13:20:12.385Z,6.90
2023-02-17T13:22:42.520Z,4.30
2023-02-17T13:25:28.282Z,4.25
2023-02-17T13:27:55.141Z,7.68
2023-02-17T13:30:21.977Z,4.70
2023-02-17T13:33:04.190Z,5.97
2023-02-17T13:35:34.640Z,6.55
2023-02-17T13:38:01.585Z,8.82
2023-02-17T13:40:42.573Z,5.13
2023-02-17T13:43:19.963Z,3.35
2023-02-17T13:45:56.997Z,3.50
2023-02-17T13:48:33.613Z,7.25
2023-02-17T13:51:21.207Z,4.95
2023-02-17T13:53:51.290Z,5.35
2023-02-17T13:56:29.572Z,8.77
2023-02-17T13:59:18.471Z,4.00
2023-02-17T14:01:47.568Z,7.15
2023-02-17T14:04:26.744Z,4.43
2023-02-17T14:06:56.341Z,6.45
2023-02-17T14:09:32.795Z,6.10
2023-02-17T14:12:02.872Z,4.70
2023-02-17T14:14:32.621Z,5.05
2023-02-17T14:17:06.928Z,6.13
2023-02-17T14:19:45.472Z,5.32
2023-02-17T14:22:28.866Z,6.80
2023-02-17T14:25:07.800Z,4.25
2023-02-17T14:27:51.214Z,5.22
2023-02-17T14:30:37.843Z,4.95
2023-02-17T14:33:15.468Z,7.40
2023-02-17T14:35:56.224Z,7.07
2023-02-17T14:38:32.277Z,5.57
2023-02-17T14:41:01.074Z,14.07
2023-02-17T14:43:28.295Z,2.45
2023-02-17T14:45:54.861Z,7.03
2023-02-17T14:48:21.704Z,6.68
2023-02-17T14:50:48.772Z,5.07
2023-02-17T14:53:21.514Z,6.85
2023-02-17T14:55:53.632Z,3.42
2023-02-17T14:58:23.549Z,5.93
2023-02-17T15:00:50.715Z,4.88
2023-02-17T15:03:17.509Z,4.93
2023-02-17T15:05:46.830Z,8.40
2023-02-17T15:08:17.357Z,6.70
2023-02-17T15:10:44.649Z,5.78
2023-02-17T15:13:20.645Z,3.83
2023-02-17T15:15:49.475Z,6.53
2023-02-17T15:18:18.688Z,4.97
2023-02-17T15:20:50.445Z,6.05
2023-02-17T15:23:20.996Z,5.88
2023-02-17T15:25:48.774Z,3.78
2023-02-17T15:28:20.373Z,5.95
2023-02-17T15:30:56.479Z,6.07
2023-02-17T15:33:24.455Z,5.38
2023-02-17T15:35:53.767Z,4.95
2023-02-17T15:38:23.585Z,4.03
2023-02-17T15:40:56.754Z,4.05
2023-02-17T15:43:24.310Z,4.50
2023-02-17T15:45:50.949Z,5.88
2023-02-17T15:48:30.204Z,6.00
2023-02-17T15:50:56.821Z,5.57
2023-02-17T15:53:23.456Z,6.50
2023-02-17T15:55:51.430Z,7.43
2023-02-17T15:58:21.994Z,3.65
2023-02-17T16:00:51.349Z,6.03
2023-02-17T16:03:18.534Z,11.15
2023-02-17T16:05:45.207Z,10.15
2023-02-17T16:08:12.237Z,6.75
2023-02-17T16:10:42.186Z,11.20
2023-02-17T16:13:14.636Z,10.40
2023-02-17T16:15:41.820Z,7.95
2023-02-17T16:18:19.789Z,6.47
2023-02-17T16:20:46.486Z,3.28
2023-02-17T16:23:13.253Z,8.13
2023-02-17T16:25:43.405Z,8.05
2023-02-17T16:28:22.021Z,7.85
2023-02-17T16:30:49.694Z,6.25
2023-02-17T16:33:17.123Z,4.55
2023-02-17T16:35:44.077Z,7.20
2023-02-17T16:38:23.325Z,7.85
2023-02-17T16:40:51.968Z,8.52
2023-02-17T16:43:21.370Z,4.80
2023-02-17T16:45:53.164Z,5.53
2023-02-17T16:48:22.318Z,6.30
2023-02-17T16:50:48.980Z,11.02
2023-02-17T16:53:15.733Z,7.93
2023-02-17T16:55:42.754Z,6.47
2023-02-17T16:58:22.449Z,9.48
2023-02-17T17:00:52.678Z,5.65
2023-02-17T17:03:20.307Z,4.90
2023-02-17T17:05:47.021Z,5.30
2023-02-17T17:08:16.622Z,7.18
2023-02-17T17:10:46.222Z,6.07
2023-02-17T17:13:15.724Z,6.43
2023-02-17T17:15:44.997Z,4.85
2023-02-17T17:18:21.071Z,4.78
2023-02-17T17:20:50.962Z,3.95
2023-02-17T17:23:20.851Z,4.93
2023-02-17T17:25:48.737Z,4.03
2023-02-17T17:28:19.553Z,4.50
2023-02-17T17:30:47.145Z,6.63
2023-02-17T17:33:13.863Z,3.22
2023-02-17T17:35:40.769Z,4.53
2023-02-17T17:38:09.962Z,3.45
2023-02-17T17:40:48.524Z,4.20
2023-02-17T17:43:23.489Z,4.32
2023-02-17T17:45:51.449Z,4.72
2023-02-17T17:48:20.814Z,3.72
2023-02-17T17:50:49.579Z,10.20
2023-02-17T17:53:16.254Z,5.80
2023-02-17T17:55:42.876Z,4.88
2023-02-17T17:58:11.819Z,2.45
2023-02-17T18:00:38.469Z,2.83
2023-02-17T18:03:05.193Z,6.20
2023-02-17T18:05:34.636Z,4.07
2023-02-17T18:08:01.381Z,6.30
2023-02-17T18:10:28.162Z,5.90
2023-02-17T18:12:55.645Z,13.45
2023-02-17T18:15:22.311Z,6.18
2023-02-17T18:17:49.488Z,4.65
2023-02-17T18:20:16.199Z,2.13
2023-02-17T18:22:45.033Z,5.03
2023-02-17T18:25:11.913Z,4.82
2023-02-17T18:27:44.652Z,5.13
2023-02-17T18:30:14.514Z,5.03
2023-02-17T18:32:44.256Z,4.55
2023-02-17T18:35:12.701Z,13.35
2023-02-17T18:37:41.031Z,1.85
2023-02-17T18:40:12.497Z,7.20
2023-02-17T18:42:40.590Z,3.10
2023-02-17T18:45:07.781Z,2.03
2023-02-17T18:47:34.374Z,2.28
2023-02-17T18:50:00.974Z,4.78
2023-02-17T18:52:27.601Z,2.90
2023-02-17T18:54:54.201Z,4.65
2023-02-17T18:57:20.854Z,4.55
2023-02-17T18:59:50.207Z,3.58
2023-02-17T19:02:17.010Z,2.80
2023-02-17T19:04:43.615Z,5.05
2023-02-17T19:07:10.712Z,4.75
2023-02-17T19:09:39.507Z,2.05
2023-02-17T19:12:13.308Z,6.50
2023-02-17T19:17:10.989Z,3.17
2023-02-17T19:19:41.639Z,2.25
2023-02-17T19:22:11.482Z,3.50
2023-02-17T19:24:39.692Z,4.72
2023-02-17T19:27:09.439Z,1.67
2023-02-17T19:29:36.054Z,1.67
2023-02-17T19:32:06.047Z,2.00
2023-02-17T19:34:32.731Z,2.03
2023-02-17T19:36:59.436Z,2.85
2023-02-17T19:39:30.849Z,3.53
2023-02-17T19:41:57.516Z,4.50
2023-02-17T19:44:26.475Z,2.42
2023-02-17T19:46:55.315Z,2.25
2023-02-17T19:49:24.027Z,3.10
2023-02-17T19:51:50.635Z,1.85
2023-02-17T19:54:17.250Z,2.80
2023-02-17T19:56:43.882Z,5.50
2023-02-17T19:59:10.592Z,2.40
2023-02-17T20:01:37.299Z,2.70
2023-02-17T20:04:05.084Z,3.08
2023-02-17T20:06:37.750Z,3.40
2023-02-17T20:09:08.386Z,1.52
2023-02-17T20:11:35.093Z,3.80
2023-02-17T20:14:02.797Z,1.50
2023-02-17T20:16:30.620Z,2.92
2023-02-17T20:18:57.288Z,3.17
2023-02-17T20:21:28.265Z,1.88
2023-02-17T20:23:55.757Z,2.55
2023-02-17T20:26:27.323Z,2.50
2023-02-17T20:28:54.314Z,1.60
2023-02-17T20:31:21.018Z,2.40
2023-02-17T20:33:48.293Z,1.98
2023-02-17T20:36:15.165Z,2.67
2023-02-17T20:38:42.179Z,2.67
2023-02-17T20:41:10.193Z,3.42
2023-02-17T20:43:39.706Z,2.25
2023-02-17T20:46:07.033Z,2.00
2023-02-17T20:48:34.083Z,1.67
2023-02-17T20:51:00.823Z,2.33
2023-02-17T20:53:27.554Z,2.25
2023-02-17T20:55:54.209Z,3.65
2023-02-17T20:58:23.890Z,2.72
2023-02-17T21:00:50.887Z,2.05
2023-02-17T21:03:17.614Z,3.08
2023-02-17T21:05:44.386Z,3.22
2023-02-17T21:08:11.016Z,2.42
2023-02-17T21:10:40.707Z,2.17
2023-02-17T21:13:07.573Z,3.78
2023-02-17T21:15:34.447Z,2.53
2023-02-17T21:18:01.109Z,2.65
2023-02-17T21:20:27.679Z,5.20
2023-02-17T21:22:54.696Z,2.65
2023-02-17T21:25:21.256Z,1.40
2023-02-17T21:27:48.013Z,1.58
2023-02-17T21:30:14.974Z,1.33
2023-02-17T21:32:42.047Z,2.25
2023-02-17T21:35:10.471Z,3.85
2023-02-17T21:37:38.941Z,1.83
2023-02-17T21:40:10.001Z,1.27
2023-02-17T21:42:56.355Z,3.42
2023-02-17T21:45:23.952Z,2.75
2023-02-17T21:47:53.250Z,2.58
2023-02-17T21:50:23.240Z,2.75
2023-02-17T21:52:54.280Z,2.20
2023-02-17T21:55:20.935Z,2.42
2023-02-17T21:57:49.934Z,2.15
2023-02-17T22:00:19.567Z,3.60
2023-02-17T22:02:46.127Z,3.17
2023-02-17T22:05:12.923Z,3.60
2023-02-17T22:07:39.468Z,2.95
2023-02-17T22:10:07.080Z,1.90
2023-02-17T22:12:37.730Z,2.30
2023-02-17T22:15:05.863Z,3.15
2023-02-17T22:17:34.997Z,3.03
2023-02-17T22:20:04.798Z,4.45
2023-02-17T22:22:36.129Z,3.58
2023-02-17T22:25:02.738Z,2.08
2023-02-17T22:27:29.391Z,2.50
2023-02-17T22:29:56.891Z,4.82
2023-02-17T22:32:23.696Z,2.17
2023-02-17T22:34:50.345Z,2.25
2023-02-17T22:37:16.959Z,2.97
2023-02-17T22:39:43.546Z,4.22
2023-02-17T22:42:10.133Z,3.75
2023-02-17T22:44:39.035Z,4.28
2023-02-17T22:47:05.682Z,2.58
2023-02-17T22:49:34.350Z,2.35
2023-02-17T22:52:00.931Z,3.83
2023-02-17T22:54:27.595Z,3.03
2023-02-17T22:56:54.211Z,1.95
2023-02-17T22:59:20.798Z,2.08
2023-02-17T23:01:47.509Z,2.10
2023-02-17T23:04:14.846Z,2.15
2023-02-17T23:06:42.466Z,4.35
2023-02-17T23:09:15.340Z,2.90
2023-02-17T23:11:52.365Z,13.18
2023-02-17T23:14:24.532Z,8.73
2023-02-17T23:16:54.506Z,5.90
2023-02-17T23:19:22.366Z,2.78
2023-02-17T23:21:51.929Z,6.32
2023-02-17T23:24:19.951Z,8.70
2023-02-17T23:26:49.814Z,11.35
2023-02-17T23:29:17.386Z,6.22
2023-02-17T23:31:46.380Z,2.20
2023-02-17T23:34:15.775Z,3.33
2023-02-17T23:36:43.869Z,2.08
2023-02-17T23:39:10.866Z,2.35
2023-02-17T23:41:38.387Z,3.60
2023-02-17T23:44:07.225Z,3.35
2023-02-17T23:46:34.469Z,3.08
2023-02-17T23:49:01.211Z,3.33
2023-02-17T23:51:27.859Z,4.35
2023-02-17T23:53:54.489Z,2.17
2023-02-17T23:56:25.546Z,4.88
2023-02-17T23:58:52.523Z,2.75
